Time;durP1;ratioP1;P1;durP2;ratioP2;P2;SDS_P1;SDS_P2;PMS_P1;PMS_P2;Temp;Humidity;BMP_temperature;BMP_pressure;BME280_temperature;BME280_humidity;BME280_pressure;Samples;Min_cycle;Max_cycle;Signal;HPM_P1;HPM_P2
2023/02/17 00:01:39;;;;;;;172.90;58.28;;;5.80;100.00;;;;;;4985784;28;20052;-90
2023/02/17 00:04:06;;;;;;;174.95;58.47;;;5.80;100.00;;;;;;4977893;28;20050;-90
2023/02/17 00:06:33;;;;;;;162.38;56.55;;;5.80;100.00;;;;;;4979714;28;20054;-90
2023/02/17 00:09:00;;;;;;;176.68;56.85;;;5.70;100.00;;;;;;4981432;28;20054;-90
2023/02/17 00:11:27;;;;;;;183.32;57.08;;;5.70;100.00;;;;;;4984897;28;20216;-91
2023/02/17 00:13:54;;;;;;;174.70;56.55;;;5.70;100.00;;;;;;4985672;28;20057;-88
2023/02/17 00:16:24;;;;;;;182.55;54.03;;;5.70;100.00;;;;;;4973590;28;20098;-88
2023/02/17 00:18:57;;;;;;;180.50;55.25;;;5.70;100.00;;;;;;4972368;28;20489;-89
2023/02/17 00:21:28;;;;;;;167.63;54.63;;;5.70;100.00;;;;;;4981309;28;20066;-87
2023/02/17 00:23:57;;;;;;;173.75;56.85;;;5.70;100.00;;;;;;5002571;28;20054;-89
2023/02/17 00:26:24;;;;;;;173.98;54.65;;;5.70;100.00;;;;;;4982829;28;20086;-89
2023/02/17 00:28:50;;;;;;;176.20;53.72;;;5.70;100.00;;;;;;4976184;28;20058;-89
2023/02/17 00:31:22;;;;;;;166.02;55.63;;;5.60;100.00;;;;;;4972465;28;20471;-89
2023/02/17 00:33:52;;;;;;;187.48;56.58;;;5.60;100.00;;;;;;4983448;28;20100;-89
2023/02/17 00:36:20;;;;;;;176.43;54.72;;;5.60;100.00;;;;;;4986152;28;20471;-88
2023/02/17 00:38:47;;;;;;;171.85;53.72;;;5.60;100.00;;;;;;4983274;28;20088;-88
2023/02/17 00:41:21;;;;;;;164.20;52.90;;;5.60;100.00;;;;;;4982522;28;20050;-90
2023/02/17 00:44:03;;;;;;;163.75;52.45;;;5.60;100.00;;;;;;4946307;28;20070;-88
2023/02/17 00:46:53;;;;;;;179.02;53.50;;;5.60;100.00;;;;;;4977184;28;20060;-89
2023/02/17 00:49:22;;;;;;;153.95;53.42;;;5.60;100.00;;;;;;4992512;28;20070;-90
2023/02/17 00:51:49;;;;;;;176.48;55.28;;;5.60;100.00;;;;;;4973786;28;20058;-89
2023/02/17 00:54:18;;;;;;;166.75;52.92;;;5.70;100.00;;;;;;4976688;28;20101;-90
2023/02/17 00:56:45;;;;;;;175.13;52.85;;;5.60;100.00;;;;;;4969005;28;20042;-90
2023/02/17 00:59:13;;;;;;;174.70;55.20;;;5.60;100.00;;;;;;4987331;28;20054;-90
2023/02/17 01:01:41;;;;;;;166.60;54.20;;;5.70;100.00;;;;;;4981313;28;20104;-90
2023/02/17 01:04:11;;;;;;;169.95;55.17;;;5.70;100.00;;;;;;4981161;28;20440;-90
2023/02/17 01:06:42;;;;;;;172.85;55.28;;;5.70;100.00;;;;;;4973432;28;20057;-90
2023/02/17 01:09:13;;;;;;;157.65;54.13;;;5.70;100.00;;;;;;4984955;28;20145;-90
2023/02/17 01:11:44;;;;;;;184.85;55.47;;;5.70;100.00;;;;;;4980829;28;20148;-90
2023/02/17 01:14:13;;;;;;;175.57;57.75;;;5.70;100.00;;;;;;4979563;28;20082;-90
2023/02/17 01:16:44;;;;;;;170.18;55.70;;;5.70;100.00;;;;;;4977576;28;20109;-94
2023/02/17 01:19:15;;;;;;;188.55;56.58;;;5.70;100.00;;;;;;4965712;28;20396;-95
2023/02/17 01:21:44;;;;;;;173.18;54.42;;;5.70;100.00;;;;;;4981696;28;20467;-94
2023/02/17 01:24:12;;;;;;;190.90;57.40;;;5.70;100.00;;;;;;4981688;28;20081;-93
2023/02/17 01:26:39;;;;;;;174.40;56.28;;;5.70;100.00;;;;;;4981029;28;20074;-93
2023/02/17 01:29:08;;;;;;;174.95;53.85;;;5.70;100.00;;;;;;4980865;28;20471;-94
2023/02/17 01:31:38;;;;;;;188.23;55.08;;;5.70;100.00;;;;;;4998481;28;20077;-95
2023/02/17 01:34:06;;;;;;;170.40;55.58;;;5.70;100.00;;;;;;4980541;28;20046;-94
2023/02/17 01:36:34;;;;;;;193.95;58.42;;;5.70;100.00;;;;;;4949364;28;20054;-94
2023/02/17 01:39:01;;;;;;;171.35;55.20;;;5.70;100.00;;;;;;4982251;28;20594;-95
2023/02/17 01:41:33;;;;;;;173.57;54.20;;;5.80;100.00;;;;;;4982100;28;20054;-94
2023/02/17 01:44:17;;;;;;;173.15;56.60;;;5.70;100.00;;;;;;4966759;28;20058;-92
2023/02/17 01:46:46;;;;;;;169.65;55.30;;;5.80;100.00;;;;;;4980205;28;20086;-93
2023/02/17 01:49:29;;;;;;;196.77;56.55;;;5.80;100.00;;;;;;4994562;28;20054;-92
2023/02/17 01:52:23;;;;;;;161.80;55.03;;;5.80;100.00;;;;;;4996509;28;20046;-94
2023/02/17 01:55:06;;;;;;;177.95;54.20;;;5.80;100.00;;;;;;4984810;28;20105;-94
2023/02/17 01:57:37;;;;;;;169.85;54.22;;;5.80;100.00;;;;;;4961017;28;20058;-94
2023/02/17 02:00:06;;;;;;;169.68;52.90;;;5.80;100.00;;;;;;4961077;28;20142;-94
2023/02/17 02:02:33;;;;;;;162.98;53.45;;;5.80;100.00;;;;;;4988029;28;20064;-93
2023/02/17 02:05:01;;;;;;;170.88;54.78;;;5.80;100.00;;;;;;4998521;28;20073;-94
2023/02/17 02:07:33;;;;;;;171.23;54.40;;;5.80;100.00;;;;;;4999012;28;20140;-93
2023/02/17 02:10:00;;;;;;;165.93;55.58;;;5.80;100.00;;;;;;4982441;28;20470;-94
2023/02/17 02:12:34;;;;;;;165.68;53.95;;;5.90;100.00;;;;;;4994798;28;20410;-92
2023/02/17 02:15:15;;;;;;;171.70;52.97;;;5.90;100.00;;;;;;4998846;28;20495;-93
2023/02/17 02:18:10;;;;;;;161.23;52.58;;;5.90;100.00;;;;;;4993584;28;20072;-92
2023/02/17 02:20:40;;;;;;;152.73;52.33;;;5.90;100.00;;;;;;4974580;28;20163;-91
2023/02/17 02:23:44;;;;;;;164.32;53.22;;;5.90;100.00;;;;;;4982858;28;20058;-93
2023/02/17 02:26:29;;;;;;;154.45;51.17;;;5.90;100.00;;;;;;4979095;28;20383;-93
2023/02/17 02:29:34;;;;;;;162.52;51.78;;;5.90;100.00;;;;;;4986123;28;20431;-92
2023/02/17 02:32:19;;;;;;;167.65;53.45;;;5.90;100.00;;;;;;4985675;28;20050;-93
2023/02/17 02:34:56;;;;;;;145.35;49.45;;;5.90;100.00;;;;;;4979583;28;20046;-93
2023/02/17 02:37:29;;;;;;;154.98;52.08;;;5.90;100.00;;;;;;4989687;28;20399;-93
2023/02/17 02:39:59;;;;;;;146.80;50.78;;;6.00;100.00;;;;;;4995251;28;20392;-91
2023/02/17 02:42:26;;;;;;;155.77;51.38;;;6.00;100.00;;;;;;4964752;28;20050;-88
2023/02/17 02:44:54;;;;;;;149.45;51.40;;;6.00;100.00;;;;;;4978185;28;20108;-89
2023/02/17 02:47:49;;;;;;;147.23;50.45;;;6.00;100.00;;;;;;4975764;28;20054;-90
2023/02/17 02:50:22;;;;;;;148.15;49.95;;;6.00;100.00;;;;;;4993033;28;20052;-89
2023/02/17 02:52:52;;;;;;;162.18;52.17;;;6.00;100.00;;;;;;5002946;28;20056;-90
2023/02/17 02:55:34;;;;;;;153.50;49.17;;;6.00;100.00;;;;;;4986685;28;20078;-89
2023/02/17 02:58:19;;;;;;;148.48;50.95;;;6.10;100.00;;;;;;4980778;28;20078;-92
2023/02/17 03:00:46;;;;;;;146.57;47.92;;;6.10;100.00;;;;;;4988055;28;20134;-93
2023/02/17 03:03:28;;;;;;;152.07;49.78;;;6.10;100.00;;;;;;4990327;28;20054;-93
2023/02/17 03:06:04;;;;;;;138.25;46.95;;;6.10;100.00;;;;;;4981713;28;20074;-93
2023/02/17 03:08:32;;;;;;;142.45;48.33;;;6.10;100.00;;;;;;4973531;28;20058;-93
2023/02/17 03:11:00;;;;;;;133.50;47.65;;;6.20;100.00;;;;;;4978904;28;20052;-92
2023/02/17 03:13:27;;;;;;;136.07;47.80;;;6.20;100.00;;;;;;4978009;28;20136;-92
2023/02/17 03:15:54;;;;;;;132.93;47.88;;;6.20;100.00;;;;;;4980535;28;20042;-92
2023/02/17 03:18:21;;;;;;;149.45;50.55;;;6.30;100.00;;;;;;4979692;28;20096;-92
2023/02/17 03:20:55;;;;;;;141.85;47.53;;;6.30;100.00;;;;;;4978118;28;20058;-94
2023/02/17 03:23:23;;;;;;;135.57;46.72;;;6.30;100.00;;;;;;4978520;28;20053;-93
2023/02/17 03:25:51;;;;;;;137.32;47.65;;;6.30;100.00;;;;;;4977505;28;20058;-91
2023/02/17 03:28:18;;;;;;;142.88;47.53;;;6.30;100.00;;;;;;4987598;28;20065;-92
2023/02/17 03:30:45;;;;;;;136.13;46.13;;;6.40;100.00;;;;;;4974974;28;20081;-93
2023/02/17 03:33:12;;;;;;;134.45;44.95;;;6.40;100.00;;;;;;4991572;28;20057;-92
2023/02/17 03:35:39;;;;;;;141.35;46.20;;;6.40;100.00;;;;;;4977930;28;20081;-91
2023/02/17 03:38:07;;;;;;;128.70;44.38;;;6.40;100.00;;;;;;4983785;28;20423;-92
2023/02/17 03:40:34;;;;;;;133.68;45.03;;;6.50;100.00;;;;;;4989073;28;20485;-90
2023/02/17 03:43:01;;;;;;;131.40;45.03;;;6.50;100.00;;;;;;4981698;28;20050;-90
2023/02/17 03:45:28;;;;;;;129.35;46.60;;;6.50;100.00;;;;;;4978796;28;20357;-90
2023/02/17 03:47:55;;;;;;;135.52;43.75;;;6.50;100.00;;;;;;4974949;28;20061;-90
2023/02/17 03:50:22;;;;;;;126.82;45.15;;;6.50;100.00;;;;;;4986474;28;20137;-93
2023/02/17 03:52:49;;;;;;;132.18;45.15;;;6.50;100.00;;;;;;4978175;28;20051;-91
2023/02/17 03:55:17;;;;;;;132.25;45.72;;;6.60;100.00;;;;;;4984230;28;20061;-91
2023/02/17 03:57:44;;;;;;;131.88;46.60;;;6.60;100.00;;;;;;4986698;28;20049;-91
2023/02/17 04:00:11;;;;;;;127.72;45.03;;;6.60;100.00;;;;;;4977065;28;20058;-91
2023/02/17 04:02:38;;;;;;;132.82;44.97;;;6.60;100.00;;;;;;4981112;28;20124;-93
2023/02/17 04:05:09;;;;;;;127.13;43.70;;;6.60;100.00;;;;;;4983930;28;20054;-92
2023/02/17 04:07:36;;;;;;;127.70;43.28;;;6.60;100.00;;;;;;4980663;28;20052;-92
2023/02/17 04:10:05;;;;;;;124.47;41.80;;;6.60;100.00;;;;;;4983511;28;20476;-95
2023/02/17 04:12:35;;;;;;;131.82;44.05;;;6.70;100.00;;;;;;4979515;28;20578;-91
2023/02/17 04:15:03;;;;;;;130.05;43.88;;;6.70;100.00;;;;;;4985893;28;20053;-90
2023/02/17 04:17:30;;;;;;;117.85;43.35;;;6.70;100.00;;;;;;4979975;28;20046;-89
2023/02/17 04:19:57;;;;;;;128.80;45.67;;;6.70;100.00;;;;;;4975903;28;20080;-90
2023/02/17 04:22:24;;;;;;;120.40;42.35;;;6.70;100.00;;;;;;4981242;28;20050;-93
2023/02/17 04:24:51;;;;;;;134.10;45.78;;;6.80;100.00;;;;;;4982383;28;20077;-92
2023/02/17 04:27:18;;;;;;;129.20;44.17;;;6.80;100.00;;;;;;4995027;28;20046;-91
2023/02/17 04:29:45;;;;;;;115.72;42.67;;;6.80;100.00;;;;;;4985786;28;20074;-92
2023/02/17 04:32:13;;;;;;;116.32;42.88;;;6.80;100.00;;;;;;4981048;28;20483;-92
2023/02/17 04:34:40;;;;;;;123.30;43.25;;;6.80;100.00;;;;;;4980800;28;20105;-92
2023/02/17 04:37:14;;;;;;;119.80;42.90;;;6.80;100.00;;;;;;4976720;28;20527;-93
2023/02/17 04:39:46;;;;;;;124.00;42.60;;;6.80;100.00;;;;;;4997199;28;20101;-92
2023/02/17 04:42:13;;;;;;;127.13;43.45;;;6.80;100.00;;;;;;4992431;28;20060;-93
2023/02/17 04:44:40;;;;;;;119.50;43.88;;;6.80;100.00;;;;;;4980516;28;20057;-93
2023/02/17 04:47:08;;;;;;;123.55;43.25;;;6.80;100.00;;;;;;4988510;28;20088;-93
2023/02/17 04:49:35;;;;;;;126.55;43.10;;;6.80;100.00;;;;;;4975011;28;20058;-92
2023/02/17 04:52:06;;;;;;;121.35;42.40;;;6.80;100.00;;;;;;4979857;28;20072;-92
2023/02/17 04:54:33;;;;;;;126.10;41.55;;;6.80;100.00;;;;;;4980903;28;20053;-92
2023/02/17 04:57:00;;;;;;;120.68;42.35;;;6.90;100.00;;;;;;4980204;28;20054;-93
2023/02/17 04:59:28;;;;;;;118.10;41.40;;;6.90;100.00;;;;;;4965350;28;20459;-93
2023/02/17 05:01:58;;;;;;;129.18;42.45;;;6.90;100.00;;;;;;4993174;28;20459;-92
2023/02/17 05:04:25;;;;;;;123.63;41.88;;;6.90;100.00;;;;;;4984983;28;20056;-92
2023/02/17 05:06:53;;;;;;;116.28;40.85;;;6.90;100.00;;;;;;4999218;28;20054;-94
2023/02/17 05:09:20;;;;;;;120.22;39.88;;;6.90;100.00;;;;;;4995410;28;20081;-92
2023/02/17 05:11:47;;;;;;;116.20;41.35;;;6.90;100.00;;;;;;4979123;28;20054;-92
2023/02/17 05:14:14;;;;;;;113.65;41.25;;;7.00;100.00;;;;;;4978624;28;20135;-92
2023/02/17 05:16:41;;;;;;;119.03;40.83;;;7.00;100.00;;;;;;4993838;28;20069;-92
2023/02/17 05:19:08;;;;;;;126.18;41.35;;;7.00;100.00;;;;;;4999370;28;20538;-92
2023/02/17 05:21:35;;;;;;;110.72;39.65;;;7.00;100.00;;;;;;4999187;28;20119;-92
2023/02/17 05:24:03;;;;;;;112.75;40.13;;;7.00;100.00;;;;;;4980983;28;20061;-92
2023/02/17 05:26:30;;;;;;;113.50;39.20;;;7.00;100.00;;;;;;4987677;28;20507;-93
2023/02/17 05:28:59;;;;;;;120.60;40.40;;;7.10;100.00;;;;;;4978460;28;20105;-92
2023/02/17 05:31:26;;;;;;;111.47;40.97;;;7.10;100.00;;;;;;4982695;28;20047;-92
2023/02/17 05:33:54;;;;;;;122.45;40.00;;;7.10;100.00;;;;;;4980741;28;20541;-93
2023/02/17 05:36:24;;;;;;;118.18;37.75;;;7.10;100.00;;;;;;4963043;28;20050;-93
2023/02/17 05:38:51;;;;;;;102.90;39.20;;;7.10;100.00;;;;;;4981335;28;20053;-90
2023/02/17 05:41:18;;;;;;;119.22;38.20;;;7.10;100.00;;;;;;4987582;28;20054;-92
2023/02/17 05:43:46;;;;;;;112.32;37.65;;;7.10;100.00;;;;;;4996943;28;20145;-91
2023/02/17 05:46:13;;;;;;;115.32;40.20;;;7.10;100.00;;;;;;4996263;28;20483;-91
2023/02/17 05:48:41;;;;;;;104.63;37.35;;;7.10;100.00;;;;;;4993902;28;20058;-91
2023/02/17 05:51:08;;;;;;;106.65;36.78;;;7.10;100.00;;;;;;4982376;28;20145;-91
2023/02/17 05:53:35;;;;;;;102.35;37.22;;;7.20;100.00;;;;;;4975257;28;20475;-92
2023/02/17 05:56:09;;;;;;;103.95;37.45;;;7.20;100.00;;;;;;4988683;28;20494;-91
2023/02/17 05:58:40;;;;;;;96.97;36.08;;;7.20;100.00;;;;;;4981094;28;20117;-93
2023/02/17 06:01:11;;;;;;;103.03;36.58;;;7.20;100.00;;;;;;4995737;28;20085;-93
2023/02/17 06:03:38;;;;;;;102.00;36.50;;;7.20;100.00;;;;;;4992598;28;20489;-93
2023/02/17 06:06:06;;;;;;;103.10;37.10;;;7.20;100.00;;;;;;4996764;28;20064;-92
2023/02/17 06:08:35;;;;;;;103.20;36.78;;;7.20;100.00;;;;;;4997164;28;20049;-90
2023/02/17 06:11:02;;;;;;;112.13;37.85;;;7.20;100.00;;;;;;4994280;28;20073;-91
2023/02/17 06:13:29;;;;;;;106.03;36.72;;;7.20;100.00;;;;;;4973645;28;20046;-89
2023/02/17 06:15:57;;;;;;;111.60;37.83;;;7.30;100.00;;;;;;4968685;28;20438;-89
2023/02/17 06:18:23;;;;;;;111.22;39.67;;;7.30;100.00;;;;;;4990455;28;20137;-88
2023/02/17 06:20:53;;;;;;;108.40;36.85;;;7.30;100.00;;;;;;4972600;28;20046;-88
2023/02/17 06:23:20;;;;;;;99.07;36.75;;;7.30;100.00;;;;;;4970214;28;20056;-88
2023/02/17 06:25:46;;;;;;;109.03;37.90;;;7.40;100.00;;;;;;4968226;28;20498;-88
2023/02/17 06:28:13;;;;;;;124.15;40.20;;;7.40;100.00;;;;;;4970305;28;20054;-87
2023/02/17 06:30:40;;;;;;;105.90;36.95;;;7.40;100.00;;;;;;4968427;28;20435;-88
2023/02/17 06:33:09;;;;;;;99.28;35.72;;;7.40;100.00;;;;;;4988306;28;20050;-89
2023/02/17 06:35:36;;;;;;;99.40;35.80;;;7.40;100.00;;;;;;4974288;28;20128;-89
2023/02/17 06:38:04;;;;;;;102.22;36.17;;;7.40;100.00;;;;;;4972978;28;20126;-90
2023/02/17 06:40:31;;;;;;;100.30;35.38;;;7.40;100.00;;;;;;4972083;28;20359;-87
2023/02/17 06:42:58;;;;;;;95.43;34.28;;;7.40;100.00;;;;;;4974781;28;20061;-88
2023/02/17 06:45:25;;;;;;;94.20;34.53;;;7.40;100.00;;;;;;4985546;28;20064;-89
2023/02/17 06:47:52;;;;;;;92.38;35.30;;;7.50;100.00;;;;;;4984553;28;20100;-88
2023/02/17 06:50:20;;;;;;;94.50;33.83;;;7.50;100.00;;;;;;4995551;28;20331;-88
2023/02/17 06:52:47;;;;;;;88.70;32.70;;;7.40;100.00;;;;;;4976398;28;20049;-88
2023/02/17 06:55:17;;;;;;;97.60;32.17;;;7.50;100.00;;;;;;4970465;28;20046;-90
2023/02/17 06:57:46;;;;;;;86.28;30.58;;;7.50;100.00;;;;;;4983416;28;20053;-89
2023/02/17 07:00:14;;;;;;;81.80;32.08;;;7.50;100.00;;;;;;4969747;28;20077;-89
2023/02/17 07:02:41;;;;;;;94.32;32.60;;;7.50;100.00;;;;;;4967147;28;20050;-88
2023/02/17 07:05:08;;;;;;;93.45;33.33;;;7.50;100.00;;;;;;4966749;28;20789;-91
2023/02/17 07:07:38;;;;;;;90.15;31.65;;;7.50;100.00;;;;;;4970668;28;20065;-88
2023/02/17 07:10:07;;;;;;;86.75;31.67;;;7.60;100.00;;;;;;4982224;28;20082;-87
2023/02/17 07:12:34;;;;;;;90.05;33.35;;;7.60;100.00;;;;;;4986089;28;20146;-87
2023/02/17 07:15:02;;;;;;;91.60;31.52;;;7.60;100.00;;;;;;4975713;28;20048;-91
2023/02/17 07:17:33;;;;;;;90.78;31.00;;;7.60;100.00;;;;;;4977469;28;20078;-87
2023/02/17 07:20:00;;;;;;;90.15;31.98;;;7.60;100.00;;;;;;4976599;28;20060;-88
2023/02/17 07:22:27;;;;;;;87.07;31.80;;;7.70;100.00;;;;;;4999090;28;20085;-88
2023/02/17 07:24:54;;;;;;;92.03;31.67;;;7.70;100.00;;;;;;4993666;28;20596;-89
2023/02/17 07:27:21;;;;;;;95.18;31.33;;;7.70;100.00;;;;;;4979532;28;20056;-88
2023/02/17 07:29:48;;;;;;;87.72;30.65;;;7.70;100.00;;;;;;4984076;28;20112;-90
2023/02/17 07:32:14;;;;;;;82.65;30.85;;;7.70;100.00;;;;;;4981426;28;20050;-87
2023/02/17 07:34:42;;;;;;;85.63;30.38;;;7.80;100.00;;;;;;4984944;28;20606;-87
2023/02/17 07:37:09;;;;;;;90.55;30.50;;;7.80;100.00;;;;;;4984728;28;20092;-87
2023/02/17 07:39:36;;;;;;;87.45;29.83;;;7.80;100.00;;;;;;4986713;28;20046;-87
2023/02/17 07:42:05;;;;;;;83.18;29.10;;;7.80;100.00;;;;;;4976674;28;20403;-87
2023/02/17 07:44:32;;;;;;;83.88;27.25;;;7.90;100.00;;;;;;4971825;28;20062;-87
2023/02/17 07:46:59;;;;;;;79.03;28.33;;;7.90;100.00;;;;;;4970974;28;20805;-88
2023/02/17 07:49:26;;;;;;;76.35;26.98;;;7.90;100.00;;;;;;4980204;28;20062;-88
2023/02/17 07:51:53;;;;;;;75.30;27.00;;;7.90;100.00;;;;;;4983974;28;20157;-89
2023/02/17 07:54:20;;;;;;;73.78;26.75;;;7.90;100.00;;;;;;4995354;28;20559;-88
2023/02/17 07:56:47;;;;;;;73.85;26.27;;;8.00;100.00;;;;;;4969366;28;20052;-87
2023/02/17 07:59:14;;;;;;;58.92;22.58;;;8.00;100.00;;;;;;4982637;28;20054;-89
2023/02/17 08:01:41;;;;;;;58.83;22.45;;;8.10;100.00;;;;;;4981245;28;20495;-89
2023/02/17 08:04:08;;;;;;;65.93;21.65;;;8.10;100.00;;;;;;4977579;28;20058;-86
2023/02/17 08:06:38;;;;;;;61.63;23.13;;;8.10;100.00;;;;;;4983502;28;20049;-88
2023/02/17 08:14:37;;;;;;;88.10;24.70;;;8.10;100.00;;;;;;4993411;28;20050;-87
2023/02/17 08:17:05;;;;;;;69.22;22.20;;;8.20;100.00;;;;;;4983960;28;20046;-86
2023/02/17 08:19:32;;;;;;;81.63;23.17;;;8.30;100.00;;;;;;4989290;28;20079;-86
2023/02/17 08:22:13;;;;;;;83.53;22.17;;;8.30;100.00;;;;;;4972307;28;20065;-86
2023/02/17 08:24:40;;;;;;;57.92;19.85;;;8.30;100.00;;;;;;4965757;28;20266;-87
2023/02/17 08:27:07;;;;;;;61.38;20.83;;;8.40;100.00;;;;;;4976580;28;20583;-86
2023/02/17 08:29:34;;;;;;;50.40;19.42;;;8.30;100.00;;;;;;4989855;28;20069;-87
2023/02/17 08:32:02;;;;;;;46.40;18.70;;;8.30;100.00;;;;;;4969037;28;20065;-86
2023/02/17 08:34:32;;;;;;;53.20;18.83;;;8.30;100.00;;;;;;4976960;28;20054;-87
2023/02/17 08:37:05;;;;;;;49.13;18.77;;;8.40;100.00;;;;;;4982303;28;20042;-93
2023/02/17 08:39:33;;;;;;;54.35;19.35;;;8.40;100.00;;;;;;4979506;28;20491;-94
2023/02/17 08:42:01;;;;;;;51.13;18.92;;;8.40;100.00;;;;;;4980964;28;20144;-93
2023/02/17 08:44:27;;;;;;;54.47;18.83;;;8.40;100.00;;;;;;4987523;28;20058;-94
2023/02/17 08:46:55;;;;;;;58.20;19.80;;;8.40;100.00;;;;;;4980645;28;20050;-92
2023/02/17 08:49:24;;;;;;;52.17;18.77;;;8.40;100.00;;;;;;4997609;28;20054;-91
2023/02/17 08:51:52;;;;;;;53.10;19.02;;;8.50;100.00;;;;;;4993449;28;20096;-95
2023/02/17 08:54:19;;;;;;;60.13;18.98;;;8.50;100.00;;;;;;4991945;28;20085;-94
2023/02/17 08:56:46;;;;;;;58.22;19.63;;;8.50;100.00;;;;;;4984871;28;20041;-94
2023/02/17 08:59:13;;;;;;;57.95;19.73;;;8.50;100.00;;;;;;4985742;28;20050;-92
2023/02/17 09:01:41;;;;;;;52.47;19.08;;;8.50;100.00;;;;;;4991209;28;20057;-94
2023/02/17 09:04:11;;;;;;;60.88;20.17;;;8.60;100.00;;;;;;4981793;28;20113;-94
2023/02/17 09:06:42;;;;;;;57.90;18.95;;;8.60;100.00;;;;;;4981914;28;20510;-94
2023/02/17 09:09:12;;;;;;;58.60;19.45;;;8.60;100.00;;;;;;4981757;28;20061;-94
2023/02/17 09:11:39;;;;;;;54.53;17.83;;;8.60;100.00;;;;;;4985524;28;20466;-93
2023/02/17 09:14:06;;;;;;;51.08;17.77;;;8.60;100.00;;;;;;4994711;28;20064;-94
2023/02/17 09:16:34;;;;;;;51.28;17.65;;;8.60;100.00;;;;;;4993675;28;20052;-94
2023/02/17 09:19:01;;;;;;;50.90;17.02;;;8.70;100.00;;;;;;4981353;28;20051;-93
2023/02/17 09:21:29;;;;;;;47.60;17.10;;;8.70;100.00;;;;;;4989215;28;20137;-93
2023/02/17 09:23:56;;;;;;;57.78;17.55;;;8.70;100.00;;;;;;4997418;28;20082;-94
2023/02/17 09:26:23;;;;;;;50.55;17.95;;;8.70;100.00;;;;;;4997303;28;20064;-94
2023/02/17 09:28:50;;;;;;;49.78;16.65;;;8.70;100.00;;;;;;4996746;28;20054;-94
2023/02/17 09:31:22;;;;;;;49.13;16.88;;;8.70;100.00;;;;;;4980978;28;20057;-93
2023/02/17 09:33:50;;;;;;;40.42;15.82;;;8.70;100.00;;;;;;4980205;28;20043;-95
2023/02/17 09:36:21;;;;;;;49.50;17.05;;;8.70;100.00;;;;;;4981723;28;20534;-95
2023/02/17 09:38:49;;;;;;;46.40;17.17;;;8.70;100.00;;;;;;4981781;28;20042;-93
2023/02/17 09:41:34;;;;;;;50.22;16.88;;;8.70;100.00;;;;;;4988251;28;20080;-92
2023/02/17 09:44:01;;;;;;;46.70;16.15;;;8.70;100.00;;;;;;4976398;28;20137;-92
2023/02/17 09:46:36;;;;;;;47.20;16.48;;;8.70;100.00;;;;;;4993930;28;20058;-96
2023/02/17 09:49:16;;;;;;;51.22;15.85;;;8.80;100.00;;;;;;5001209;28;20034;-93
2023/02/17 09:52:11;;;;;;;51.45;16.73;;;8.80;100.00;;;;;;4988869;28;20133;-94
2023/02/17 09:55:10;;;;;;;45.97;16.57;;;8.80;100.00;;;;;;4978265;28;20053;-93
2023/02/17 09:58:06;;;;;;;40.78;16.08;;;8.80;100.00;;;;;;4978880;28;20056;-93
2023/02/17 10:00:39;;;;;;;50.35;16.05;;;8.80;100.00;;;;;;4989912;28;20598;-92
2023/02/17 10:03:24;;;;;;;44.15;15.52;;;8.80;100.00;;;;;;4990678;28;20468;-91
2023/02/17 10:06:23;;;;;;;48.57;16.23;;;8.80;100.00;;;;;;4979795;28;20447;-92
2023/02/17 10:08:52;;;;;;;49.00;15.88;;;8.90;100.00;;;;;;4975306;28;20066;-94
2023/02/17 10:11:26;;;;;;;47.45;16.77;;;8.90;100.00;;;;;;4973365;28;20472;-88
2023/02/17 10:13:55;;;;;;;50.45;16.58;;;8.90;100.00;;;;;;4980104;28;20054;-87
2023/02/17 10:16:29;;;;;;;45.25;16.65;;;8.90;100.00;;;;;;4974682;28;20046;-89
2023/02/17 10:19:04;;;;;;;49.42;16.95;;;8.90;100.00;;;;;;4991043;28;20133;-88
2023/02/17 10:21:35;;;;;;;;;;;9.00;100.00;;;;;;4994427;28;20065;-89
2023/02/17 10:24:02;;;;;;;43.35;14.88;;;9.00;100.00;;;;;;4984625;28;19926;-89
2023/02/17 10:26:47;;;;;;;51.00;16.85;;;9.00;100.00;;;;;;4983171;28;20065;-90
2023/02/17 10:29:35;;;;;;;43.13;14.73;;;9.00;100.00;;;;;;4967863;28;20065;-88
2023/02/17 10:32:17;;;;;;;45.60;17.33;;;9.00;100.00;;;;;;4981490;28;20133;-86
2023/02/17 10:35:14;;;;;;;44.85;14.38;;;9.00;100.00;;;;;;4984733;28;20744;-89
2023/02/17 10:37:41;;;;;;;43.50;15.40;;;9.00;100.00;;;;;;4973753;28;20483;-95
2023/02/17 10:40:17;;;;;;;44.45;14.23;;;9.10;100.00;;;;;;4982483;28;20113;-95
2023/02/17 10:42:45;;;;;;;40.55;13.63;;;9.10;100.00;;;;;;4989720;28;20058;-94
2023/02/17 10:45:30;;;;;;;37.85;13.52;;;9.10;100.00;;;;;;4989370;28;20104;-88
2023/02/17 10:48:10;;;;;;;36.38;13.95;;;9.10;100.00;;;;;;4983342;28;20077;-89
2023/02/17 10:50:40;;;;;;;38.72;14.43;;;9.10;100.00;;;;;;4996352;28;20133;-90
2023/02/17 10:53:19;;;;;;;41.05;12.85;;;9.20;100.00;;;;;;4976663;28;20068;-90
2023/02/17 10:56:02;;;;;;;38.40;14.10;;;9.20;100.00;;;;;;4983642;28;20065;-91
2023/02/17 10:58:39;;;;;;;40.05;14.20;;;9.20;100.00;;;;;;4991048;28;20466;-90
2023/02/17 11:01:07;;;;;;;38.58;14.93;;;9.20;100.00;;;;;;4986750;28;20060;-88
2023/02/17 11:03:36;;;;;;;40.83;14.43;;;9.20;100.00;;;;;;4979639;28;20057;-90
2023/02/17 11:06:25;;;;;;;38.17;12.40;;;9.20;100.00;;;;;;4984235;28;20099;-88
2023/02/17 11:09:00;;;;;;;35.35;12.02;;;9.20;100.00;;;;;;4991820;28;20144;-87
2023/02/17 11:11:34;;;;;;;33.92;11.68;;;9.30;100.00;;;;;;4994640;28;20384;-93
2023/02/17 11:14:17;;;;;;;32.05;11.57;;;9.30;100.00;;;;;;4990001;28;20085;-92
2023/02/17 11:16:47;;;;;;;36.72;12.52;;;9.30;100.00;;;;;;4990054;28;20054;-93
2023/02/17 11:19:33;;;;;;;30.90;11.80;;;9.30;100.00;;;;;;4992237;28;20100;-91
2023/02/17 11:22:03;;;;;;;40.13;12.80;;;9.30;100.00;;;;;;4980236;28;20074;-90
2023/02/17 11:24:33;;;;;;;36.75;11.50;;;9.30;100.00;;;;;;4999926;28;20073;-90
2023/02/17 11:27:06;;;;;;;32.63;12.35;;;9.40;100.00;;;;;;4987767;28;20050;-92
2023/02/17 11:29:33;;;;;;;31.15;10.50;;;9.40;100.00;;;;;;4982298;28;20092;-92
2023/02/17 11:32:07;;;;;;;36.53;11.35;;;9.40;100.00;;;;;;4981003;28;20522;-93
2023/02/17 11:34:37;;;;;;;30.65;10.82;;;9.40;100.00;;;;;;4978308;28;20057;-92
2023/02/17 11:37:13;;;;;;;28.17;9.60;;;9.40;100.00;;;;;;4984358;28;20092;-89
2023/02/17 11:39:49;;;;;;;26.95;9.50;;;9.40;100.00;;;;;;4984537;28;20054;-88
2023/02/17 11:42:22;;;;;;;31.42;9.82;;;9.40;100.00;;;;;;4978697;28;20086;-88
2023/02/17 11:44:51;;;;;;;27.65;10.02;;;9.40;100.00;;;;;;4977116;28;20047;-88
2023/02/17 11:47:34;;;;;;;26.52;9.10;;;9.40;100.00;;;;;;4975554;28;20058;-88
2023/02/17 11:50:01;;;;;;;30.33;10.13;;;9.50;100.00;;;;;;4988656;28;20056;-91
2023/02/17 11:52:37;;;;;;;25.23;8.85;;;9.50;100.00;;;;;;4987904;28;20121;-92
2023/02/17 11:55:22;;;;;;;25.67;9.32;;;9.50;100.00;;;;;;4999836;28;20062;-92
2023/02/17 11:57:54;;;;;;;29.38;10.02;;;9.50;100.00;;;;;;4988715;28;20050;-92
2023/02/17 12:00:30;;;;;;;24.60;8.55;;;9.60;100.00;;;;;;4987224;28;20137;-92
2023/02/17 12:03:35;;;;;;;24.83;8.40;;;9.60;100.00;;;;;;4987173;28;20065;-92
2023/02/17 12:06:11;;;;;;;22.63;8.98;;;9.70;100.00;;;;;;4957250;28;20092;-92
2023/02/17 12:08:56;;;;;;;22.02;8.48;;;9.70;100.00;;;;;;4983854;28;20129;-92
2023/02/17 12:11:50;;;;;;;23.27;7.68;;;9.70;100.00;;;;;;4983012;28;20155;-92
2023/02/17 12:14:39;;;;;;;22.50;7.22;;;9.70;100.00;;;;;;4972268;28;20054;-92
2023/02/17 12:17:29;;;;;;;21.48;7.38;;;9.80;100.00;;;;;;5006415;28;20054;-92
2023/02/17 12:20:18;;;;;;;23.33;7.07;;;9.90;100.00;;;;;;4979293;28;20141;-92
2023/02/17 12:23:20;;;;;;;18.80;7.07;;;9.90;100.00;;;;;;4974778;28;20069;-93
2023/02/17 12:25:56;;;;;;;21.60;6.88;;;9.90;100.00;;;;;;4961300;28;20058;-93
2023/02/17 12:28:23;;;;;;;25.58;7.60;;;10.00;100.00;;;;;;4980276;28;20113;-93
2023/02/17 12:30:56;;;;;;;22.27;7.93;;;10.00;100.00;;;;;;4980478;28;20078;-93
2023/02/17 12:33:44;;;;;;;24.20;7.07;;;10.00;100.00;;;;;;4977992;28;20050;-89
2023/02/17 12:36:14;;;;;;;19.95;5.93;;;10.00;100.00;;;;;;4978089;28;20062;-89
2023/02/17 12:38:45;;;;;;;23.23;7.15;;;10.00;100.00;;;;;;4982981;28;20476;-89
2023/02/17 12:41:16;;;;;;;20.65;5.75;;;10.10;100.00;;;;;;4978175;28;20371;-89
2023/02/17 12:43:49;;;;;;;19.15;6.80;;;10.10;100.00;;;;;;4978519;28;20058;-89
2023/02/17 12:46:23;;;;;;;20.95;7.10;;;10.10;100.00;;;;;;4981796;28;20062;-90
2023/02/17 12:49:01;;;;;;;17.85;6.47;;;10.10;100.00;;;;;;4979766;28;20140;-89
2023/02/17 12:51:37;;;;;;;20.77;6.35;;;10.10;100.00;;;;;;4967696;28;20062;-89